Terminal Aerodrome Forecast
Issued by NWS

Home | Current Version | Previous Version | Text Only | Print | Product List | Glossary On
Versions: 1 2 3 4 5 6 7 8 9 10 11 12 13 14 15
360
FTUS41 KBTV 181337 AAA
TAFMSS
TAF AMD
KMSS 181337Z 1814/1912 06006KT 4SM BR OVC006
      TEMPO 1814/1817 1SM -FZRA BR OVC003
     FM181700 VRB03KT P6SM VCSH BKN003 OVC015
     FM190000 23005KT P6SM OVC003=

USA.gov is the U.S. government's official web portal to all federal, state and local government web resources and services.